Time;durP1;ratioP1;P1;durP2;ratioP2;P2;SDS_P1;SDS_P2;PMS_P1;PMS_P2;Temp;Humidity;BMP_temperature;BMP_pressure;BME280_temperature;BME280_humidity;BME280_pressure;Samples;Min_cycle;Max_cycle;Signal;HPM_P1;HPM_P2
2023/03/22 00:03:18;;;;;;;;;;;;;;;;;;10371411;28;788;-74
2023/03/22 00:08:14;;;;;;;;;;;;;;;;;;10371698;28;893;-74
2023/03/22 00:13:10;;;;;;;;;;;;;;;;;;10370902;28;763;-74
2023/03/22 00:18:07;;;;;;;;;;;;;;;;;;10371225;28;1953;-74
2023/03/22 00:23:02;;;;;;;;;;;;;;;;;;10371080;28;856;-74
2023/03/22 00:27:58;;;;;;;;;;;;;;;;;;10370886;28;888;-74
2023/03/22 00:32:54;;;;;;;;;;;;;;;;;;10370141;28;842;-74
2023/03/22 00:37:50;;;;;;;;;;;;;;;;;;10370343;28;1886;-74
2023/03/22 00:42:46;;;;;;;;;;;;;;;;;;10368984;28;1425;-74
2023/03/22 00:47:42;;;;;;;;;;;;;;;;;;10370120;28;831;-74
2023/03/22 00:52:38;;;;;;;;;;;;;;;;;;10369440;28;831;-74
2023/03/22 00:57:34;;;;;;;;;;;;;;;;;;10369453;28;1918;-74
2023/03/22 01:02:32;;;;;;;;;;;;;;;;;;10369505;28;942;-74
2023/03/22 01:07:28;;;;;;;;;;;;;;;;;;10368714;28;810;-74
2023/03/22 01:12:24;;;;;;;;;;;;;;;;;;10369024;28;1031;-74
2023/03/22 01:17:20;;;;;;;;;;;;;;;;;;10368266;28;1882;-74
2023/03/22 01:22:16;;;;;;;;;;;;;;;;;;10368730;28;874;-74
2023/03/22 01:27:12;;;;;;;;;;;;;;;;;;10367997;28;914;-74
2023/03/22 01:32:08;;;;;;;;;;;;;;;;;;10367800;28;838;-74
2023/03/22 01:37:04;;;;;;;;;;;;;;;;;;10368239;28;1890;-74
2023/03/22 01:42:00;;;;;;;;;;;;;;;;;;10368290;28;1366;-74
2023/03/22 01:46:55;;;;;;;;;;;;;;;;;;10367318;28;922;-74
2023/03/22 01:51:51;;;;;;;;;;;;;;;;;;10367064;28;905;-74
2023/03/22 01:56:47;;;;;;;;;;;;;;;;;;10367125;28;1914;-74
2023/03/22 02:01:45;;;;;;;;;;;;;;;;;;10366885;28;877;-74
2023/03/22 02:06:41;;;;;;;;;;;;;;;;;;10366533;28;896;-74
2023/03/22 02:11:40;;;;;;;;;;;;;;;;;;10367211;28;952;-74
2023/03/22 02:16:36;;;;;;;;;;;;;;;;;;10366389;28;1882;-74
2023/03/22 02:21:32;;;;;;;;;;;;;;;;;;10366943;28;874;-74
2023/03/22 02:26:28;;;;;;;;;;;;;;;;;;10366845;28;893;-74
2023/03/22 02:31:24;;;;;;;;;;;;;;;;;;10366250;28;989;-74
2023/03/22 02:36:21;;;;;;;;;;;;;;;;;;10365893;28;1882;-74
2023/03/22 02:41:17;;;;;;;;;;;;;;;;;;10366640;28;1263;-74
2023/03/22 02:46:12;;;;;;;;;;;;;;;;;;10366929;28;1049;-74
2023/03/22 02:51:08;;;;;;;;;;;;;;;;;;10365803;28;819;-74
2023/03/22 02:56:04;;;;;;;;;;;;;;;;;;10366254;28;1914;-74
2023/03/22 03:01:00;;;;;;;;;;;;;;;;;;10365022;28;937;-74
2023/03/22 03:05:56;;;;;;;;;;;;;;;;;;10365503;28;1039;-73
2023/03/22 03:10:52;;;;;;;;;;;;;;;;;;10366032;28;799;-74
2023/03/22 03:15:48;;;;;;;;;;;;;;;;;;10365852;28;1886;-73
2023/03/22 03:20:45;;;;;;;;;;;;;;;;;;10372929;28;885;-73
2023/03/22 03:25:42;;;;;;;;;;;;;;;;;;10372696;28;1003;-74
2023/03/22 03:30:39;;;;;;;;;;;;;;;;;;10372485;28;889;-73
2023/03/22 03:35:37;;;;;;;;;;;;;;;;;;10372882;28;1898;-74
2023/03/22 03:40:33;;;;;;;;;;;;;;;;;;10371716;28;1294;-74
2023/03/22 03:45:29;;;;;;;;;;;;;;;;;;10372591;28;845;-73
2023/03/22 03:50:24;;;;;;;;;;;;;;;;;;10372530;28;883;-73
2023/03/22 03:55:20;;;;;;;;;;;;;;;;;;10371609;28;1975;-73
2023/03/22 04:00:16;;;;;;;;;;;;;;;;;;10372680;28;907;-73
2023/03/22 04:05:12;;;;;;;;;;;;;;;;;;10371586;28;864;-73
2023/03/22 04:10:08;;;;;;;;;;;;;;;;;;10371031;28;965;-74
2023/03/22 04:15:04;;;;;;;;;;;;;;;;;;10371247;28;1890;-74
2023/03/22 04:20:06;;;;;;;;;;;;;;;;;;10371056;28;799;-73
2023/03/22 04:25:02;;;;;;;;;;;;;;;;;;10371251;28;825;-73
2023/03/22 04:29:59;;;;;;;;;;;;;;;;;;10369126;28;814;-74
2023/03/22 04:34:55;;;;;;;;;;;;;;;;;;10370038;28;924;-74
2023/03/22 04:39:51;;;;;;;;;;;;;;;;;;10369896;28;1940;-74
2023/03/22 04:44:47;;;;;;;;;;;;;;;;;;10370326;28;854;-73
2023/03/22 04:49:43;;;;;;;;;;;;;;;;;;10370108;28;977;-74
2023/03/22 04:54:39;;;;;;;;;;;;;;;;;;10351174;28;802;-74
2023/03/22 04:59:34;;;;;;;;;;;;;;;;;;10368972;28;1918;-74
2023/03/22 05:04:30;;;;;;;;;;;;;;;;;;10368865;28;879;-74
2023/03/22 05:09:26;;;;;;;;;;;;;;;;;;10368683;28;906;-74
2023/03/22 05:14:22;;;;;;;;;;;;;;;;;;10369140;28;814;-74
2023/03/22 05:19:23;;;;;;;;;;;;;;;;;;10368521;28;1890;-74
2023/03/22 05:24:19;;;;;;;;;;;;;;;;;;10368149;28;797;-74
2023/03/22 05:29:14;;;;;;;;;;;;;;;;;;10367976;28;878;-73
2023/03/22 05:34:10;;;;;;;;;;;;;;;;;;10367793;28;915;-74
2023/03/22 05:39:06;;;;;;;;;;;;;;;;;;10367127;28;1898;-74
2023/03/22 05:44:02;;;;;;;;;;;;;;;;;;10368213;28;981;-74
2023/03/22 05:48:58;;;;;;;;;;;;;;;;;;10367919;28;944;-74
2023/03/22 05:53:54;;;;;;;;;;;;;;;;;;10367748;28;979;-75
2023/03/22 05:58:50;;;;;;;;;;;;;;;;;;10366945;28;1917;-74
2023/03/22 06:03:47;;;;;;;;;;;;;;;;;;10367590;28;818;-74
2023/03/22 06:08:43;;;;;;;;;;;;;;;;;;10367273;28;876;-74
2023/03/22 06:13:39;;;;;;;;;;;;;;;;;;10367181;28;943;-73
2023/03/22 06:18:34;;;;;;;;;;;;;;;;;;10367022;28;1947;-74
2023/03/22 06:23:30;;;;;;;;;;;;;;;;;;10367129;28;813;-74
2023/03/22 06:28:28;;;;;;;;;;;;;;;;;;10366837;28;919;-73
2023/03/22 06:33:24;;;;;;;;;;;;;;;;;;10366750;28;798;-74
2023/03/22 06:38:20;;;;;;;;;;;;;;;;;;10365974;28;1898;-73
2023/03/22 06:43:16;;;;;;;;;;;;;;;;;;10362235;28;1169;-74
2023/03/22 06:48:12;;;;;;;;;;;;;;;;;;10365641;28;921;-73
2023/03/22 06:53:08;;;;;;;;;;;;;;;;;;10369776;28;872;-73
2023/03/22 06:58:03;;;;;;;;;;;;;;;;;;10373798;28;1910;-73
2023/03/22 07:02:59;;;;;;;;;;;;;;;;;;10374028;28;892;-73
2023/03/22 07:07:55;;;;;;;;;;;;;;;;;;10373442;28;810;-73
2023/03/22 07:12:51;;;;;;;;;;;;;;;;;;10373172;28;989;-74
2023/03/22 07:17:47;;;;;;;;;;;;;;;;;;10373612;28;1897;-74
2023/03/22 07:22:43;;;;;;;;;;;;;;;;;;10372974;28;839;-74
2023/03/22 07:27:39;;;;;;;;;;;;;;;;;;10372842;28;961;-74
2023/03/22 07:32:35;;;;;;;;;;;;;;;;;;10372545;28;1106;-74
2023/03/22 07:37:31;;;;;;;;;;;;;;;;;;10372360;28;1961;-74
2023/03/22 07:42:26;;;;;;;;;;;;;;;;;;10372612;28;1159;-74
2023/03/22 07:47:22;;;;;;;;;;;;;;;;;;10372811;28;937;-74
2023/03/22 07:52:18;;;;;;;;;;;;;;;;;;10353846;28;782;-74
2023/03/22 07:57:15;;;;;;;;;;;;;;;;;;10371004;28;1918;-74
2023/03/22 08:02:11;;;;;;;;;;;;;;;;;;10371812;28;794;-73
2023/03/22 08:07:08;;;;;;;;;;;;;;;;;;10371745;28;846;-73
2023/03/22 08:12:05;;;;;;;;;;;;;;;;;;10371038;28;864;-73
2023/03/22 08:17:00;;;;;;;;;;;;;;;;;;10370769;28;1952;-78
2023/03/22 08:21:56;;;;;;;;;;;;;;;;;;10370744;28;852;-78
2023/03/22 08:26:52;;;;;;;;;;;;;;;;;;10371065;28;890;-74
2023/03/22 08:31:48;;;;;;;;;;;;;;;;;;10370194;28;1172;-75
2023/03/22 08:36:45;;;;;;;;;;;;;;;;;;10370622;28;1967;-74
2023/03/22 08:41:40;;;;;;;;;;;;;;;;;;10369951;28;1299;-74
2023/03/22 08:46:36;;;;;;;;;;;;;;;;;;10370249;28;1082;-74
2023/03/22 08:51:32;;;;;;;;;;;;;;;;;;10369592;28;796;-74
2023/03/22 08:56:28;;;;;;;;;;;;;;;;;;10369166;28;1969;-74
2023/03/22 09:01:25;;;;;;;;;;;;;;;;;;10369675;28;914;-74
2023/03/22 09:06:21;;;;;;;;;;;;;;;;;;10368850;28;1147;-79
2023/03/22 09:11:17;;;;;;;;;;;;;;;;;;10368717;28;860;-74
2023/03/22 09:16:12;;;;;;;;;;;;;;;;;;10367218;28;1886;-74
2023/03/22 09:21:08;;;;;;;;;;;;;;;;;;10368952;28;878;-74
2023/03/22 09:26:04;;;;;;;;;;;;;;;;;;10369373;28;909;-74
2023/03/22 09:31:00;;;;;;;;;;;;;;;;;;10368030;28;1035;-74
2023/03/22 09:35:56;;;;;;;;;;;;;;;;;;10368292;28;1885;-74
2023/03/22 09:40:59;;;;;;;;;;;;;;;;;;10367065;28;1259;-74
2023/03/22 09:45:55;;;;;;;;;;;;;;;;;;10365267;28;990;-74
2023/03/22 09:50:51;;;;;;;;;;;;;;;;;;10366255;28;1000;-74
2023/03/22 09:55:47;;;;;;;;;;;;;;;;;;10365168;28;2036;-74
2023/03/22 10:00:43;;;;;;;;;;;;;;;;;;10365519;28;892;-74
2023/03/22 10:05:39;;;;;;;;;;;;;;;;;;10365354;28;842;-74
2023/03/22 10:10:34;;;;;;;;;;;;;;;;;;10365655;28;955;-73
2023/03/22 10:15:30;;;;;;;;;;;;;;;;;;10364356;28;1953;-74
2023/03/22 10:20:26;;;;;;;;;;;;;;;;;;10365617;28;870;-74
2023/03/22 10:25:22;;;;;;;;;;;;;;;;;;10364639;28;877;-74
2023/03/22 10:30:18;;;;;;;;;;;;;;;;;;10363958;28;799;-74
2023/03/22 10:35:14;;;;;;;;;;;;;;;;;;10363748;28;1947;-74
2023/03/22 10:40:10;;;;;;;;;;;;;;;;;;10326883;28;1117000;-74
2023/03/22 10:45:05;;;;;;;;;;;;;;;;;;10366218;28;936;-73
2023/03/22 10:50:02;;;;;;;;;;;;;;;;;;10365518;28;1008;-75
2023/03/22 10:54:58;;;;;;;;;;;;;;;;;;10366324;28;862;-74
2023/03/22 10:59:54;;;;;;;;;;;;;;;;;;10366256;28;1894;-77
2023/03/22 11:04:50;;;;;;;;;;;;;;;;;;10365564;28;866;-77
2023/03/22 11:09:46;;;;;;;;;;;;;;;;;;10365439;28;1725;-77
2023/03/22 11:14:42;;;;;;;;;;;;;;;;;;10365454;28;902;-77
2023/03/22 11:19:37;;;;;;;;;;;;;;;;;;10365227;28;1878;-76
2023/03/22 11:24:33;;;;;;;;;;;;;;;;;;10365459;28;782;-74
2023/03/22 11:29:29;;;;;;;;;;;;;;;;;;10365156;28;860;-74
2023/03/22 11:34:25;;;;;;;;;;;;;;;;;;10364978;28;794;-75
2023/03/22 11:39:21;;;;;;;;;;;;;;;;;;10369204;28;1890;-76
2023/03/22 11:44:17;;;;;;;;;;;;;;;;;;10372121;28;1053;-76
2023/03/22 11:49:13;;;;;;;;;;;;;;;;;;10372012;28;842;-76
2023/03/22 11:54:09;;;;;;;;;;;;;;;;;;10372421;28;815;-77
2023/03/22 11:59:05;;;;;;;;;;;;;;;;;;10371504;28;1888;-76
2023/03/22 12:04:01;;;;;;;;;;;;;;;;;;10371395;28;856;-76
2023/03/22 12:08:57;;;;;;;;;;;;;;;;;;10371226;28;1026;-76
2023/03/22 12:13:53;;;;;;;;;;;;;;;;;;10370457;28;1047;-76
2023/03/22 12:18:49;;;;;;;;;;;;;;;;;;10370150;28;1878;-76
2023/03/22 12:23:45;;;;;;;;;;;;;;;;;;10370656;28;765;-76
2023/03/22 12:28:41;;;;;;;;;;;;;;;;;;10370389;28;988;-76
2023/03/22 12:33:37;;;;;;;;;;;;;;;;;;10369622;28;1036;-77
2023/03/22 12:38:34;;;;;;;;;;;;;;;;;;10369968;28;1935;-76
2023/03/22 12:43:30;;;;;;;;;;;;;;;;;;10370026;28;1343;-76
2023/03/22 12:48:26;;;;;;;;;;;;;;;;;;10369907;28;880;-75
2023/03/22 12:53:21;;;;;;;;;;;;;;;;;;10369875;28;894;-75
2023/03/22 12:58:17;;;;;;;;;;;;;;;;;;10369235;28;1977;-75
2023/03/22 13:03:13;;;;;;;;;;;;;;;;;;10368512;28;831;-75
2023/03/22 13:08:09;;;;;;;;;;;;;;;;;;10369501;28;799;-75
2023/03/22 13:13:05;;;;;;;;;;;;;;;;;;10368447;28;976;-76
2023/03/22 13:18:01;;;;;;;;;;;;;;;;;;10368501;28;1914;-75
2023/03/22 13:22:57;;;;;;;;;;;;;;;;;;10368650;28;886;-75
2023/03/22 13:27:53;;;;;;;;;;;;;;;;;;10368771;28;881;-79
2023/03/22 13:32:53;;;;;;;;;;;;;;;;;;10368616;28;815;-78
2023/03/22 13:37:49;;;;;;;;;;;;;;;;;;10367107;28;1949;-79
2023/03/22 13:42:45;;;;;;;;;;;;;;;;;;10366876;28;1628;-79
2023/03/22 13:47:41;;;;;;;;;;;;;;;;;;10367408;28;886;-78
2023/03/22 13:52:37;;;;;;;;;;;;;;;;;;10367875;28;901;-80
2023/03/22 13:57:32;;;;;;;;;;;;;;;;;;10367060;28;1969;-78
2023/03/22 14:02:28;;;;;;;;;;;;;;;;;;10367182;28;866;-77
2023/03/22 14:07:25;;;;;;;;;;;;;;;;;;10366603;28;916;-78
2023/03/22 14:12:20;;;;;;;;;;;;;;;;;;10366378;28;777;-78
2023/03/22 14:17:16;;;;;;;;;;;;;;;;;;10366237;28;1890;-78
2023/03/22 14:22:12;;;;;;;;;;;;;;;;;;10365628;28;957;-78
2023/03/22 14:27:08;;;;;;;;;;;;;;;;;;10366691;28;905;-77
2023/03/22 14:32:04;;;;;;;;;;;;;;;;;;10365944;28;853;-78
2023/03/22 14:37:00;;;;;;;;;;;;;;;;;;10366318;28;2318;-77
2023/03/22 14:41:56;;;;;;;;;;;;;;;;;;10366373;28;1143;-79
2023/03/22 14:46:52;;;;;;;;;;;;;;;;;;10365719;28;900;-79
2023/03/22 14:51:48;;;;;;;;;;;;;;;;;;10365605;28;881;-78
2023/03/22 14:56:45;;;;;;;;;;;;;;;;;;10364705;28;1915;-78
2023/03/22 15:01:41;;;;;;;;;;;;;;;;;;10365415;28;991;-78
2023/03/22 15:06:37;;;;;;;;;;;;;;;;;;10347906;28;821;-78
2023/03/22 15:11:33;;;;;;;;;;;;;;;;;;10365287;28;913;-79
2023/03/22 15:16:28;;;;;;;;;;;;;;;;;;10373157;28;1996;-78
2023/03/22 15:21:25;;;;;;;;;;;;;;;;;;10372388;28;920;-78
2023/03/22 15:26:21;;;;;;;;;;;;;;;;;;10372940;28;846;-78
2023/03/22 15:31:16;;;;;;;;;;;;;;;;;;10372977;28;860;-78
2023/03/22 15:36:12;;;;;;;;;;;;;;;;;;10372670;28;1941;-78
2023/03/22 15:41:08;;;;;;;;;;;;;;;;;;10372576;28;1310;-78
2023/03/22 15:46:04;;;;;;;;;;;;;;;;;;10372227;28;902;-76
2023/03/22 15:51:00;;;;;;;;;;;;;;;;;;10371975;28;944;-79
2023/03/22 15:55:56;;;;;;;;;;;;;;;;;;10371662;28;1902;-79
2023/03/22 16:00:52;;;;;;;;;;;;;;;;;;10372230;28;778;-75
2023/03/22 16:05:48;;;;;;;;;;;;;;;;;;10371434;28;774;-79
2023/03/22 16:10:44;;;;;;;;;;;;;;;;;;10371204;28;927;-79
2023/03/22 16:15:40;;;;;;;;;;;;;;;;;;10371954;28;1881;-78
2023/03/22 16:20:36;;;;;;;;;;;;;;;;;;10370852;28;791;-78
2023/03/22 16:25:32;;;;;;;;;;;;;;;;;;10370507;28;844;-79
2023/03/22 16:30:28;;;;;;;;;;;;;;;;;;10370471;28;846;-79
2023/03/22 16:35:24;;;;;;;;;;;;;;;;;;10370235;28;976;-79
2023/03/22 16:40:20;;;;;;;;;;;;;;;;;;10369478;28;1957;-78
2023/03/22 16:45:16;;;;;;;;;;;;;;;;;;10369845;28;844;-79
2023/03/22 16:50:12;;;;;;;;;;;;;;;;;;10370273;28;886;-79
2023/03/22 16:55:08;;;;;;;;;;;;;;;;;;10370094;28;1121;-79
2023/03/22 17:00:04;;;;;;;;;;;;;;;;;;10369250;28;1975;-77
2023/03/22 17:05:00;;;;;;;;;;;;;;;;;;10368475;28;858;-77
2023/03/22 17:09:56;;;;;;;;;;;;;;;;;;10368823;28;983;-80
2023/03/22 17:14:52;;;;;;;;;;;;;;;;;;10368705;28;763;-79
2023/03/22 17:19:48;;;;;;;;;;;;;;;;;;10368470;28;1894;-78
2023/03/22 17:24:44;;;;;;;;;;;;;;;;;;10369200;28;874;-78
2023/03/22 17:29:39;;;;;;;;;;;;;;;;;;10369019;28;858;-78
2023/03/22 17:34:35;;;;;;;;;;;;;;;;;;10368324;28;854;-79
2023/03/22 17:39:35;;;;;;;;;;;;;;;;;;10368063;28;1878;-79
2023/03/22 17:44:31;;;;;;;;;;;;;;;;;;10367729;28;964;-79
2023/03/22 17:49:27;;;;;;;;;;;;;;;;;;10367327;28;897;-79
2023/03/22 17:54:23;;;;;;;;;;;;;;;;;;10367280;28;795;-78
2023/03/22 17:59:19;;;;;;;;;;;;;;;;;;10367037;28;1969;-79
2023/03/22 18:04:15;;;;;;;;;;;;;;;;;;10366913;28;1156;-80
2023/03/22 18:09:11;;;;;;;;;;;;;;;;;;10367434;28;799;-79
2023/03/22 18:14:07;;;;;;;;;;;;;;;;;;10366669;28;882;-79
2023/03/22 18:19:03;;;;;;;;;;;;;;;;;;10366402;28;1885;-79
2023/03/22 18:23:59;;;;;;;;;;;;;;;;;;10366428;28;942;-80
2023/03/22 18:28:55;;;;;;;;;;;;;;;;;;10365686;28;1227;-79
2023/03/22 18:33:51;;;;;;;;;;;;;;;;;;10366107;28;999;-79
2023/03/22 18:38:47;;;;;;;;;;;;;;;;;;10365962;28;1894;-79
2023/03/22 18:43:42;;;;;;;;;;;;;;;;;;10365553;28;901;-79
2023/03/22 18:48:38;;;;;;;;;;;;;;;;;;10369815;28;865;-79
2023/03/22 18:53:34;;;;;;;;;;;;;;;;;;10374325;28;929;-78
2023/03/22 18:58:30;;;;;;;;;;;;;;;;;;10374022;28;1979;-79
2023/03/22 19:03:26;;;;;;;;;;;;;;;;;;10374488;28;983;-78
2023/03/22 19:08:22;;;;;;;;;;;;;;;;;;10373750;28;902;-79
2023/03/22 19:13:19;;;;;;;;;;;;;;;;;;10373958;28;980;-79
2023/03/22 19:18:15;;;;;;;;;;;;;;;;;;10373192;28;1939;-78
2023/03/22 19:23:11;;;;;;;;;;;;;;;;;;10373174;28;803;-78
2023/03/22 19:28:07;;;;;;;;;;;;;;;;;;10372939;28;776;-78
2023/03/22 19:33:03;;;;;;;;;;;;;;;;;;10373456;28;819;-79
2023/03/22 19:37:59;;;;;;;;;;;;;;;;;;10373255;28;1949;-79
2023/03/22 19:42:55;;;;;;;;;;;;;;;;;;10372854;28;1265;-78
2023/03/22 19:47:51;;;;;;;;;;;;;;;;;;10372290;28;871;-78
2023/03/22 19:52:47;;;;;;;;;;;;;;;;;;10372618;28;819;-79
2023/03/22 19:57:43;;;;;;;;;;;;;;;;;;10371318;28;1974;-79
2023/03/22 20:02:39;;;;;;;;;;;;;;;;;;10371536;28;831;-79
2023/03/22 20:07:35;;;;;;;;;;;;;;;;;;10371319;28;887;-79
2023/03/22 20:12:31;;;;;;;;;;;;;;;;;;10371914;28;867;-78
2023/03/22 20:17:27;;;;;;;;;;;;;;;;;;10370525;28;1947;-79
2023/03/22 20:22:23;;;;;;;;;;;;;;;;;;10371007;28;893;-80
2023/03/22 20:27:19;;;;;;;;;;;;;;;;;;10370581;28;972;-79
2023/03/22 20:32:15;;;;;;;;;;;;;;;;;;10370325;28;889;-76
2023/03/22 20:37:12;;;;;;;;;;;;;;;;;;10370590;28;1983;-75
2023/03/22 20:42:08;;;;;;;;;;;;;;;;;;10369570;28;1611;-76
2023/03/22 20:47:03;;;;;;;;;;;;;;;;;;10369912;28;1247;-78
2023/03/22 20:52:00;;;;;;;;;;;;;;;;;;10371019;28;815;-78
2023/03/22 20:56:55;;;;;;;;;;;;;;;;;;10369357;28;1910;-78
2023/03/22 21:01:53;;;;;;;;;;;;;;;;;;10369511;28;807;-78
2023/03/22 21:06:49;;;;;;;;;;;;;;;;;;10369650;28;870;-78
2023/03/22 21:11:46;;;;;;;;;;;;;;;;;;10368644;28;821;-78
2023/03/22 21:16:42;;;;;;;;;;;;;;;;;;10367965;28;1882;-78
2023/03/22 21:21:38;;;;;;;;;;;;;;;;;;10369253;28;857;-78
2023/03/22 21:26:34;;;;;;;;;;;;;;;;;;10369017;28;911;-78
2023/03/22 21:31:30;;;;;;;;;;;;;;;;;;10368977;28;811;-78
2023/03/22 21:36:28;;;;;;;;;;;;;;;;;;10349642;28;1961;-78
2023/03/22 21:41:23;;;;;;;;;;;;;;;;;;10368711;28;1138;-78
2023/03/22 21:46:20;;;;;;;;;;;;;;;;;;10368221;28;838;-78
2023/03/22 21:51:16;;;;;;;;;;;;;;;;;;10367999;28;889;-78
2023/03/22 21:56:12;;;;;;;;;;;;;;;;;;10367961;28;1910;-78
2023/03/22 22:01:08;;;;;;;;;;;;;;;;;;10366522;28;1017;-78
2023/03/22 22:06:04;;;;;;;;;;;;;;;;;;10367706;28;827;-78
2023/03/22 22:10:59;;;;;;;;;;;;;;;;;;10368197;28;937;-78
2023/03/22 22:15:55;;;;;;;;;;;;;;;;;;10365940;28;1948;-77
2023/03/22 22:20:51;;;;;;;;;;;;;;;;;;10366472;28;863;-78
2023/03/22 22:25:47;;;;;;;;;;;;;;;;;;10367241;28;823;-78
2023/03/22 22:30:43;;;;;;;;;;;;;;;;;;10366583;28;977;-78
2023/03/22 22:35:39;;;;;;;;;;;;;;;;;;10366266;28;1935;-78
2023/03/22 22:40:35;;;;;;;;;;;;;;;;;;10365982;28;1333;-77
2023/03/22 22:45:31;;;;;;;;;;;;;;;;;;10366674;28;882;-78
2023/03/22 22:50:27;;;;;;;;;;;;;;;;;;10365978;28;865;-78
2023/03/22 22:55:22;;;;;;;;;;;;;;;;;;10366123;28;802;-78
2023/03/22 23:00:19;;;;;;;;;;;;;;;;;;10365737;28;1979;-78
2023/03/22 23:05:15;;;;;;;;;;;;;;;;;;10366318;28;865;-78
2023/03/22 23:10:11;;;;;;;;;;;;;;;;;;10365025;28;933;-78
2023/03/22 23:15:10;;;;;;;;;;;;;;;;;;10365403;28;889;-78
2023/03/22 23:20:12;;;;;;;;;;;;;;;;;;10365452;28;1941;-78
2023/03/22 23:25:08;;;;;;;;;;;;;;;;;;10366238;28;869;-78
2023/03/22 23:30:03;;;;;;;;;;;;;;;;;;10365321;28;1711;-78
2023/03/22 23:35:02;;;;;;;;;;;;;;;;;;10369126;28;886;-78
2023/03/22 23:39:58;;;;;;;;;;;;;;;;;;10371732;28;1890;-78
2023/03/22 23:44:54;;;;;;;;;;;;;;;;;;10373044;28;1050;-78
2023/03/22 23:49:50;;;;;;;;;;;;;;;;;;10372140;28;877;-78
2023/03/22 23:54:45;;;;;;;;;;;;;;;;;;10371956;28;873;-78
2023/03/22 23:59:41;;;;;;;;;;;;;;;;;;10371754;28;1969;-77
